Time;durP1;ratioP1;P1;durP2;ratioP2;P2;SDS_P1;SDS_P2;PMS_P1;PMS_P2;Temp;Humidity;BMP_temperature;BMP_pressure;BME280_temperature;BME280_humidity;BME280_pressure;Samples;Min_cycle;Max_cycle;Signal;HPM_P1;HPM_P2
2022/06/20 00:00:23;;;;;;;2.60;2.40;;;22.20;59.90;;;;;;5034778;28;20034;-58
2022/06/20 00:02:52;;;;;;;2.58;2.38;;;22.20;59.90;;;;;;5033115;28;20108;-58
2022/06/20 00:05:22;;;;;;;2.42;2.22;;;22.10;59.90;;;;;;5026434;28;20105;-58
2022/06/20 00:07:48;;;;;;;2.60;2.40;;;22.10;59.90;;;;;;5035054;28;20029;-58
2022/06/20 00:10:17;;;;;;;2.47;2.28;;;22.10;60.00;;;;;;5033189;28;20076;-58
2022/06/20 00:12:43;;;;;;;2.60;2.40;;;22.10;59.90;;;;;;5030781;28;20529;-58
2022/06/20 00:15:21;;;;;;;2.55;2.35;;;22.10;59.90;;;;;;5023942;28;20029;-57
2022/06/20 00:17:47;;;;;;;2.88;2.53;;;22.10;59.90;;;;;;5035199;28;20022;-58
2022/06/20 00:20:14;;;;;;;2.47;2.28;;;22.00;59.80;;;;;;5033706;28;20044;-58
2022/06/20 00:22:40;;;;;;;2.45;2.25;;;22.00;59.80;;;;;;5035098;28;20025;-58
2022/06/20 00:25:06;;;;;;;2.22;2.03;;;22.00;59.70;;;;;;5024608;28;20036;-58
2022/06/20 00:27:31;;;;;;;2.42;2.25;;;22.00;59.70;;;;;;5030448;28;20026;-58
2022/06/20 00:29:57;;;;;;;2.28;2.10;;;22.00;59.60;;;;;;5023159;28;20025;-58
2022/06/20 00:32:23;;;;;;;2.45;2.25;;;22.00;59.60;;;;;;5034903;28;20033;-58
2022/06/20 00:34:48;;;;;;;2.35;2.15;;;22.00;59.60;;;;;;5034881;28;20021;-57
2022/06/20 00:37:19;;;;;;;2.20;2.10;;;22.00;59.60;;;;;;5034932;28;20108;-58
2022/06/20 00:39:46;;;;;;;3.05;2.20;;;22.00;59.60;;;;;;5034882;28;20032;-58
2022/06/20 00:42:12;;;;;;;2.60;2.30;;;22.00;59.60;;;;;;5036815;28;20056;-58
2022/06/20 00:44:42;;;;;;;2.50;2.30;;;21.90;59.50;;;;;;5014544;28;20482;-58
2022/06/20 00:47:15;;;;;;;2.95;2.30;;;21.90;59.50;;;;;;5021330;28;20049;-57
2022/06/20 00:50:05;;;;;;;2.33;2.20;;;21.90;59.60;;;;;;5033520;28;20036;-58
2022/06/20 00:52:51;;;;;;;2.45;2.25;;;21.90;59.70;;;;;;5034700;28;20028;-58
2022/06/20 00:55:39;;;;;;;2.20;2.10;;;21.90;59.50;;;;;;5031784;28;20109;-58
2022/06/20 00:58:25;;;;;;;2.13;2.03;;;21.80;59.60;;;;;;5030250;28;20044;-58
2022/06/20 01:00:51;;;;;;;2.50;2.30;;;21.80;59.40;;;;;;5024416;28;20060;-58
2022/06/20 01:03:21;;;;;;;2.53;2.33;;;21.80;59.50;;;;;;5033251;28;20104;-58
2022/06/20 01:05:51;;;;;;;2.33;2.13;;;21.80;59.60;;;;;;5034093;28;20079;-58
2022/06/20 01:08:30;;;;;;;2.40;2.20;;;21.80;59.60;;;;;;5034019;28;20025;-58
2022/06/20 01:11:04;;;;;;;2.83;2.50;;;21.80;59.70;;;;;;5033951;28;20029;-58
2022/06/20 01:13:29;;;;;;;2.55;2.35;;;21.70;59.50;;;;;;5033415;28;20049;-58
2022/06/20 01:16:05;;;;;;;3.35;2.55;;;21.70;59.60;;;;;;5034018;28;20103;-58
2022/06/20 01:18:35;;;;;;;2.33;2.13;;;21.70;59.70;;;;;;5034117;28;20041;-56
2022/06/20 01:21:14;;;;;;;2.60;2.40;;;21.70;59.80;;;;;;5021970;28;20088;-58
2022/06/20 01:23:53;;;;;;;2.38;2.17;;;21.70;59.80;;;;;;5019839;28;20540;-58
2022/06/20 01:26:39;;;;;;;2.50;2.30;;;21.70;59.80;;;;;;5033664;28;20021;-58
2022/06/20 01:29:08;;;;;;;2.42;2.22;;;21.70;59.80;;;;;;5022059;28;20026;-58
2022/06/20 01:31:39;;;;;;;2.40;2.20;;;21.60;59.80;;;;;;5031560;28;20028;-58
2022/06/20 01:34:06;;;;;;;;;;;21.60;59.80;;;;;;5034151;28;20488;-57
2022/06/20 01:39:22;;;;;;;2.65;2.45;;;21.60;59.90;;;;;;5031180;28;20036;-58
2022/06/20 01:44:38;;;;;;;2.92;2.42;;;21.60;59.90;;;;;;5033336;28;20082;-58
2022/06/20 01:47:04;;;;;;;2.45;2.28;;;21.50;59.80;;;;;;5033101;28;20179;-58
2022/06/20 01:49:32;;;;;;;2.40;2.30;;;21.50;59.80;;;;;;5033236;28;20104;-58
2022/06/20 01:52:16;;;;;;;2.97;2.67;;;21.50;59.70;;;;;;5032743;28;20064;-58
2022/06/20 01:54:47;;;;;;;2.60;2.40;;;21.50;59.80;;;;;;5023398;28;20370;-58
2022/06/20 01:57:15;;;;;;;2.58;2.38;;;21.50;59.80;;;;;;5030848;28;20025;-57
2022/06/20 01:59:50;;;;;;;2.50;2.30;;;21.50;59.90;;;;;;5015680;28;20036;-58
2022/06/20 02:02:15;;;;;;;2.33;2.13;;;21.60;59.80;;;;;;5026334;28;20116;-58
2022/06/20 02:04:43;;;;;;;2.97;2.58;;;21.60;59.80;;;;;;5032948;28;20056;-58
2022/06/20 02:07:11;;;;;;;2.50;2.30;;;21.60;59.70;;;;;;5032937;28;20017;-57
2022/06/20 02:09:39;;;;;;;2.67;2.47;;;21.60;59.60;;;;;;5033126;28;20029;-57
2022/06/20 02:12:06;;;;;;;2.03;1.92;;;21.70;59.70;;;;;;5023404;28;20055;-58
2022/06/20 02:14:54;;;;;;;2.60;2.40;;;21.70;59.60;;;;;;5024041;28;20029;-58
2022/06/20 02:17:34;;;;;;;4.32;2.60;;;21.60;59.50;;;;;;5030389;28;20017;-58
2022/06/20 02:20:04;;;;;;;2.55;2.35;;;21.70;59.60;;;;;;5029717;28;20074;-58
2022/06/20 02:22:31;;;;;;;2.25;2.05;;;21.70;59.50;;;;;;5023548;28;20083;-58
2022/06/20 02:25:07;;;;;;;2.90;2.60;;;21.70;59.60;;;;;;5032040;28;20025;-58
2022/06/20 02:27:44;;;;;;;2.42;2.30;;;21.80;59.60;;;;;;5032419;28;20021;-58
2022/06/20 02:30:11;;;;;;;2.60;2.25;;;21.80;59.50;;;;;;5022348;28;20030;-58
2022/06/20 02:32:40;;;;;;;2.22;2.13;;;21.80;59.50;;;;;;5019984;28;20390;-58
2022/06/20 02:35:10;;;;;;;2.60;2.40;;;21.80;59.70;;;;;;5033228;28;20030;-58
2022/06/20 02:37:37;;;;;;;2.50;2.30;;;21.90;59.50;;;;;;5039925;28;20373;-58
2022/06/20 02:40:09;;;;;;;2.85;2.63;;;21.90;59.60;;;;;;5039207;28;20473;-58
2022/06/20 02:42:44;;;;;;;2.83;2.63;;;21.90;59.50;;;;;;5032636;28;20039;-58
2022/06/20 02:45:11;;;;;;;2.70;2.50;;;22.00;59.50;;;;;;5027343;28;20029;-58
2022/06/20 02:47:59;;;;;;;2.90;2.70;;;22.00;59.60;;;;;;5036219;28;20056;-58
2022/06/20 02:50:30;;;;;;;3.97;2.80;;;22.00;59.50;;;;;;5034041;28;20543;-57
2022/06/20 02:53:02;;;;;;;2.70;2.50;;;22.00;59.50;;;;;;5042400;28;20105;-58
2022/06/20 02:55:29;;;;;;;2.80;2.60;;;22.00;59.60;;;;;;5035969;28;20417;-58
2022/06/20 02:58:00;;;;;;;2.90;2.65;;;22.10;59.60;;;;;;5030544;28;20432;-58
2022/06/20 03:00:37;;;;;;;2.88;2.67;;;22.10;59.40;;;;;;5027148;28;20030;-58
2022/06/20 03:03:09;;;;;;;2.58;2.38;;;22.10;59.40;;;;;;5036317;28;20482;-58
2022/06/20 03:05:37;;;;;;;2.80;2.60;;;22.10;59.40;;;;;;5036648;28;20033;-58
2022/06/20 03:08:03;;;;;;;2.60;2.40;;;22.20;59.40;;;;;;5036512;28;20424;-58
2022/06/20 03:10:35;;;;;;;3.42;2.40;;;22.20;59.20;;;;;;5036343;28;20057;-58
2022/06/20 03:13:02;;;;;;;2.65;2.45;;;22.30;59.20;;;;;;5036877;28;20025;-57
2022/06/20 03:15:29;;;;;;;2.70;2.50;;;22.30;59.00;;;;;;5022581;28;20030;-58
2022/06/20 03:17:57;;;;;;;2.65;2.45;;;22.40;59.10;;;;;;5047615;28;20431;-58
2022/06/20 03:20:25;;;;;;;3.63;2.58;;;22.40;58.80;;;;;;5028332;28;20140;-58
2022/06/20 03:23:09;;;;;;;2.55;2.35;;;22.50;58.80;;;;;;5035218;28;20388;-58
2022/06/20 03:25:37;;;;;;;2.92;2.67;;;22.50;58.90;;;;;;5035250;28;20068;-58
2022/06/20 03:28:04;;;;;;;2.53;2.17;;;22.60;58.80;;;;;;5035310;28;20033;-58
2022/06/20 03:30:32;;;;;;;2.60;2.40;;;22.70;58.50;;;;;;5022669;28;20021;-57
2022/06/20 03:33:01;;;;;;;2.83;2.63;;;22.80;58.70;;;;;;5035979;28;20719;-58
2022/06/20 03:35:30;;;;;;;3.63;2.60;;;22.90;58.90;;;;;;5035322;28;20022;-58
2022/06/20 03:38:04;;;;;;;2.28;2.17;;;23.20;59.30;;;;;;5034730;28;20496;-58
2022/06/20 03:40:30;;;;;;;2.67;2.38;;;23.60;59.30;;;;;;5035325;28;20055;-58
2022/06/20 03:42:58;;;;;;;4.40;2.50;;;24.20;58.80;;;;;;5032824;28;20021;-56
2022/06/20 03:45:28;;;;;;;2.67;2.47;;;24.90;57.80;;;;;;5026109;28;20504;-56
2022/06/20 03:48:16;;;;;;;2.50;2.30;;;25.60;56.90;;;;;;5034841;28;20045;-56
2022/06/20 03:50:46;;;;;;;2.15;2.05;;;26.40;55.90;;;;;;5034128;28;20361;-56
2022/06/20 03:53:29;;;;;;;2.40;2.20;;;27.30;54.70;;;;;;5030951;28;20026;-56
2022/06/20 03:56:23;;;;;;;2.50;2.30;;;28.20;53.70;;;;;;5033849;28;20034;-56
2022/06/20 03:58:58;;;;;;;2.40;2.20;;;29.30;52.50;;;;;;5015598;28;20139;-56
2022/06/20 04:01:34;;;;;;;1.70;1.58;;;30.10;52.20;;;;;;5033045;28;20064;-57
2022/06/20 04:04:40;;;;;;;1.92;1.83;;;30.90;50.90;;;;;;5035320;28;20096;-58
2022/06/20 04:07:20;;;;;;;2.20;2.00;;;31.90;49.50;;;;;;5013331;28;20052;-60
2022/06/20 04:13:03;;;;;;;3.28;1.95;;;33.30;47.90;;;;;;5030492;28;20056;-57
2022/06/20 04:15:43;;;;;;;2.03;1.83;;;34.10;47.40;;;;;;5026226;28;20037;-61
2022/06/20 04:18:27;;;;;;;1.80;1.70;;;34.70;46.60;;;;;;5034837;28;20033;-58
2022/06/20 04:21:06;;;;;;;1.95;1.77;;;35.30;45.80;;;;;;5034767;28;20032;-58
2022/06/20 04:23:34;;;;;;;1.42;1.40;;;36.00;45.00;;;;;;5041184;28;20550;-58
2022/06/20 04:26:05;;;;;;;1.80;1.70;;;36.50;44.10;;;;;;5033931;28;20511;-58
2022/06/20 04:28:40;;;;;;;3.63;1.73;;;37.10;43.30;;;;;;5028612;28;20105;-58
2022/06/20 04:31:42;;;;;;;1.60;1.50;;;37.60;42.80;;;;;;5030849;28;20064;-58
2022/06/20 04:34:41;;;;;;;1.05;1.05;;;38.00;42.10;;;;;;5029089;28;20048;-58
2022/06/20 04:37:16;;;;;;;2.00;1.80;;;38.50;41.30;;;;;;5025660;28;20045;-58
2022/06/20 04:39:56;;;;;;;1.30;1.20;;;38.80;41.50;;;;;;5029789;28;20025;-57
2022/06/20 04:42:42;;;;;;;1.85;1.70;;;39.10;40.90;;;;;;5017527;28;20022;-58
2022/06/20 04:45:19;;;;;;;1.50;1.40;;;39.40;40.40;;;;;;5023405;28;20500;-58
2022/06/20 04:47:53;;;;;;;1.67;1.58;;;39.60;40.10;;;;;;5032265;28;20047;-57
2022/06/20 04:50:30;;;;;;;2.13;1.73;;;39.70;39.60;;;;;;5029372;28;20068;-57
2022/06/20 04:53:00;;;;;;;1.30;1.30;;;39.90;39.10;;;;;;5018989;28;20058;-57
2022/06/20 04:55:28;;;;;;;1.67;1.58;;;40.10;39.10;;;;;;5023155;28;20117;-57
2022/06/20 04:57:57;;;;;;;1.58;1.50;;;40.30;39.00;;;;;;5020443;28;20124;-58
2022/06/20 05:00:40;;;;;;;2.45;1.90;;;40.50;38.40;;;;;;5025999;28;20482;-58
2022/06/20 05:03:22;;;;;;;1.80;1.70;;;40.70;38.00;;;;;;5027373;28;20437;-57
2022/06/20 05:05:52;;;;;;;1.63;1.48;;;40.90;37.80;;;;;;5025977;28;20104;-57
2022/06/20 05:08:26;;;;;;;1.70;1.60;;;41.20;37.60;;;;;;5026664;28;20018;-58
2022/06/20 05:10:59;;;;;;;1.77;1.67;;;41.30;37.30;;;;;;5019812;28;20066;-58
2022/06/20 05:14:02;;;;;;;1.80;1.63;;;41.60;37.10;;;;;;5018743;28;20029;-58
2022/06/20 05:16:33;;;;;;;2.25;1.60;;;41.70;36.50;;;;;;5038372;28;20025;-57
2022/06/20 05:19:05;;;;;;;3.33;2.70;;;41.80;36.50;;;;;;5024459;28;20055;-57
2022/06/20 05:21:37;;;;;;;1.85;1.75;;;41.90;36.00;;;;;;5021258;28;20029;-57
2022/06/20 05:24:09;;;;;;;1.90;1.65;;;41.70;35.60;;;;;;5021436;28;20071;-58
2022/06/20 05:26:38;;;;;;;1.90;1.80;;;41.40;35.60;;;;;;5027135;28;20037;-58
2022/06/20 05:29:09;;;;;;;1.60;1.50;;;40.60;35.40;;;;;;5021869;28;20385;-58
2022/06/20 05:31:39;;;;;;;2.15;1.95;;;39.80;35.70;;;;;;5020529;28;20473;-57
2022/06/20 05:34:26;;;;;;;2.38;2.10;;;39.10;36.10;;;;;;5023798;28;20029;-57
2022/06/20 05:37:06;;;;;;;1.98;1.77;;;38.20;36.50;;;;;;5014142;28;20072;-57
2022/06/20 05:39:39;;;;;;;2.38;2.17;;;37.30;37.00;;;;;;5013500;28;20034;-57
2022/06/20 05:42:07;;;;;;;2.78;2.17;;;36.50;37.40;;;;;;5012735;28;20046;-57
2022/06/20 05:44:33;;;;;;;2.38;2.10;;;35.90;37.90;;;;;;5015481;28;20446;-57
2022/06/20 05:47:11;;;;;;;2.25;2.15;;;35.40;38.30;;;;;;5016701;28;20060;-57
2022/06/20 05:49:44;;;;;;;2.22;2.03;;;34.80;38.70;;;;;;5021782;28;20022;-57
2022/06/20 05:52:16;;;;;;;1.83;1.73;;;34.40;39.10;;;;;;5021155;28;20053;-57
2022/06/20 05:54:49;;;;;;;2.13;1.95;;;33.90;39.30;;;;;;5014604;28;20053;-57
2022/06/20 05:57:20;;;;;;;2.58;1.95;;;33.60;39.70;;;;;;5017729;28;20117;-57
2022/06/20 05:59:50;;;;;;;2.17;1.98;;;33.20;40.00;;;;;;5014033;28;20041;-57
2022/06/20 06:02:21;;;;;;;2.67;2.47;;;33.00;40.30;;;;;;5024178;28;20033;-57
2022/06/20 06:05:19;;;;;;;2.25;2.13;;;32.80;40.60;;;;;;5021209;28;20068;-57
2022/06/20 06:08:17;;;;;;;1.90;1.80;;;32.50;40.80;;;;;;5016699;28;20084;-56
2022/06/20 06:11:09;;;;;;;2.30;2.10;;;32.30;41.20;;;;;;5006852;28;20033;-57
2022/06/20 06:13:59;;;;;;;2.05;1.95;;;32.10;41.30;;;;;;5009650;28;20045;-57
2022/06/20 06:16:48;;;;;;;1.98;1.88;;;31.90;41.50;;;;;;5012824;28;20022;-57
2022/06/20 06:19:32;;;;;;;2.20;2.00;;;31.80;41.80;;;;;;5004663;28;20690;-57
2022/06/20 06:22:06;;;;;;;5.35;2.20;;;31.60;41.90;;;;;;5016303;28;20030;-57
2022/06/20 06:24:35;;;;;;;2.30;2.10;;;31.50;42.00;;;;;;5005688;28;20029;-57
2022/06/20 06:27:02;;;;;;;2.35;2.15;;;31.40;41.90;;;;;;5012925;28;20057;-57
2022/06/20 06:29:42;;;;;;;1.90;1.80;;;31.30;42.10;;;;;;5008298;28;20045;-57
2022/06/20 06:32:21;;;;;;;2.22;1.98;;;31.20;42.40;;;;;;5014384;28;20043;-57
2022/06/20 06:35:14;;;;;;;2.10;2.00;;;31.20;42.60;;;;;;5007453;28;20045;-57
2022/06/20 06:38:05;;;;;;;2.13;1.90;;;31.10;42.90;;;;;;5007275;28;20059;-57
2022/06/20 06:40:39;;;;;;;1.77;1.67;;;31.00;42.70;;;;;;5008750;28;20022;-57
2022/06/20 06:43:38;;;;;;;2.20;2.00;;;31.00;42.90;;;;;;5010395;28;20699;-57
2022/06/20 06:46:09;;;;;;;1.88;1.75;;;30.90;42.70;;;;;;5023766;28;20034;-57
2022/06/20 06:48:45;;;;;;;1.83;1.73;;;30.90;42.70;;;;;;5016037;28;20042;-57
2022/06/20 06:51:43;;;;;;;2.15;2.03;;;30.80;42.60;;;;;;5014834;28;20073;-57
2022/06/20 06:54:09;;;;;;;1.25;1.25;;;30.80;42.60;;;;;;5012136;28;20145;-57
2022/06/20 06:56:42;;;;;;;1.42;1.33;;;30.70;42.70;;;;;;5008758;28;20059;-57
2022/06/20 06:59:17;;;;;;;1.90;1.80;;;30.70;42.70;;;;;;5007135;28;20025;-57
2022/06/20 07:01:50;;;;;;;1.67;1.58;;;30.70;42.60;;;;;;5006625;28;21427;-57
2022/06/20 07:04:19;;;;;;;1.40;1.30;;;30.60;42.50;;;;;;5010078;28;20750;-57
2022/06/20 07:06:52;;;;;;;2.53;1.55;;;30.60;42.40;;;;;;5013955;28;20080;-57
2022/06/20 07:09:50;;;;;;;1.63;1.52;;;30.60;42.40;;;;;;5010704;28;20088;-57
2022/06/20 07:12:15;;;;;;;1.90;1.80;;;30.60;42.60;;;;;;5013087;28;20060;-57
2022/06/20 07:14:43;;;;;;;1.88;1.77;;;30.50;42.40;;;;;;5016650;28;20389;-57
2022/06/20 07:17:26;;;;;;;1.90;1.45;;;30.50;42.50;;;;;;5011530;28;20039;-57
2022/06/20 07:19:52;;;;;;;1.58;1.48;;;30.50;42.60;;;;;;5005808;28;20124;-57
2022/06/20 07:22:21;;;;;;;1.83;1.73;;;30.40;42.60;;;;;;5007174;28;20099;-57
2022/06/20 07:24:47;;;;;;;1.88;1.70;;;30.40;42.70;;;;;;5006723;28;20022;-57
2022/06/20 07:27:13;;;;;;;1.83;1.73;;;30.50;42.90;;;;;;5016115;28;20044;-57
2022/06/20 07:29:47;;;;;;;2.08;1.88;;;30.40;42.80;;;;;;5017922;28;20033;-57
2022/06/20 07:32:37;;;;;;;1.80;1.70;;;30.40;42.60;;;;;;5013521;28;20042;-57
2022/06/20 07:35:10;;;;;;;1.70;1.52;;;30.30;42.70;;;;;;5009166;28;20083;-57
2022/06/20 07:38:00;;;;;;;2.15;1.77;;;30.20;42.70;;;;;;5016276;28;20464;-57
2022/06/20 07:40:36;;;;;;;1.75;1.65;;;30.20;42.90;;;;;;5015150;28;20034;-57
2022/06/20 07:43:10;;;;;;;1.70;1.60;;;30.20;43.00;;;;;;5009283;28;20038;-56
2022/06/20 07:45:46;;;;;;;2.30;2.10;;;30.20;42.90;;;;;;5014114;28;20029;-57
2022/06/20 07:48:19;;;;;;;1.63;1.52;;;30.20;42.90;;;;;;5008482;28;20037;-58
2022/06/20 07:50:57;;;;;;;1.85;1.75;;;30.20;43.10;;;;;;5008924;28;20025;-57
2022/06/20 07:53:34;;;;;;;1.80;1.70;;;30.10;43.20;;;;;;5007971;28;20072;-56
2022/06/20 07:56:07;;;;;;;1.60;1.50;;;30.10;43.20;;;;;;5007132;28;20033;-57
2022/06/20 07:58:41;;;;;;;1.60;1.55;;;30.10;43.20;;;;;;4994345;28;20053;-57
2022/06/20 08:01:34;;;;;;;1.42;1.33;;;30.10;43.20;;;;;;4995281;28;20413;-57
2022/06/20 08:04:06;;;;;;;1.60;1.50;;;30.10;43.20;;;;;;4992108;28;20050;-57
2022/06/20 08:06:45;;;;;;;1.80;1.65;;;30.10;43.20;;;;;;4991182;28;20064;-57
2022/06/20 08:09:42;;;;;;;1.45;1.35;;;30.10;43.30;;;;;;5007878;28;20030;-57
2022/06/20 08:12:17;;;;;;;1.20;1.20;;;30.00;43.20;;;;;;4996560;28;20076;-56
2022/06/20 08:14:46;;;;;;;1.88;1.50;;;30.00;43.20;;;;;;4993521;28;20036;-57
2022/06/20 08:17:13;;;;;;;1.70;1.60;;;30.00;43.20;;;;;;5002450;28;20038;-57
2022/06/20 08:19:41;;;;;;;1.55;1.45;;;30.10;43.20;;;;;;5003977;28;20025;-55
2022/06/20 08:22:10;;;;;;;1.98;1.88;;;30.10;43.10;;;;;;5004631;28;20036;-58
2022/06/20 08:24:43;;;;;;;2.33;1.95;;;30.10;43.00;;;;;;5004102;28;20030;-57
2022/06/20 08:27:13;;;;;;;1.27;1.27;;;30.10;42.90;;;;;;4998478;28;20386;-57
2022/06/20 08:29:47;;;;;;;2.05;1.85;;;30.00;42.90;;;;;;5012148;28;20087;-57
2022/06/20 08:32:22;;;;;;;1.70;1.60;;;30.10;43.00;;;;;;4994321;28;20068;-57
2022/06/20 08:35:04;;;;;;;1.80;1.70;;;30.00;42.80;;;;;;5012900;28;20080;-56
2022/06/20 08:37:45;;;;;;;1.50;1.40;;;30.10;42.90;;;;;;5005804;28;20036;-57
2022/06/20 08:40:22;;;;;;;3.03;2.40;;;30.00;42.80;;;;;;5009267;28;20111;-57
2022/06/20 08:42:56;;;;;;;1.77;1.67;;;30.00;42.80;;;;;;5011893;28;20584;-57
2022/06/20 08:45:42;;;;;;;1.45;1.38;;;30.00;42.90;;;;;;5004645;28;20520;-56
2022/06/20 08:48:25;;;;;;;1.63;1.52;;;30.00;42.70;;;;;;5006508;28;20049;-57
2022/06/20 08:51:19;;;;;;;2.70;1.90;;;29.90;42.70;;;;;;5006574;28;20068;-58
2022/06/20 08:53:58;;;;;;;1.42;1.38;;;29.90;42.60;;;;;;5004094;28;20034;-58
2022/06/20 08:56:47;;;;;;;2.10;1.70;;;29.90;42.70;;;;;;4996676;28;20029;-58
2022/06/20 08:59:13;;;;;;;1.95;1.75;;;29.90;42.60;;;;;;4994586;28;20132;-57
2022/06/20 09:02:06;;;;;;;1.40;1.30;;;29.90;42.60;;;;;;5008466;28;20037;-58
2022/06/20 09:04:56;;;;;;;2.58;1.85;;;29.90;42.20;;;;;;4998434;28;20041;-58
2022/06/20 09:07:43;;;;;;;2.13;1.48;;;29.80;42.00;;;;;;5004643;28;20492;-58
2022/06/20 09:10:17;;;;;;;1.52;1.50;;;29.80;42.00;;;;;;5004752;28;20045;-58
2022/06/20 09:12:52;;;;;;;1.80;1.70;;;29.80;42.00;;;;;;5005036;28;20033;-58
2022/06/20 09:15:27;;;;;;;1.88;1.77;;;29.70;42.00;;;;;;5003263;28;20056;-58
2022/06/20 09:18:01;;;;;;;2.95;1.83;;;29.70;42.00;;;;;;5004738;28;20064;-58
2022/06/20 09:20:34;;;;;;;1.10;1.10;;;29.70;42.10;;;;;;5005023;28;20991;-58
2022/06/20 09:23:36;;;;;;;1.42;1.33;;;29.60;42.10;;;;;;5003517;28;20063;-58
2022/06/20 09:26:10;;;;;;;1.48;1.38;;;29.60;42.00;;;;;;5005059;28;20025;-58
2022/06/20 09:29:11;;;;;;;1.42;1.38;;;29.60;42.10;;;;;;4996857;28;20788;-58
2022/06/20 09:32:05;;;;;;;1.33;1.23;;;29.50;41.90;;;;;;4995374;28;20084;-58
2022/06/20 09:34:59;;;;;;;1.80;1.70;;;29.50;41.80;;;;;;5001890;28;22664;-58
2022/06/20 09:37:46;;;;;;;1.58;1.48;;;29.40;41.80;;;;;;5007458;28;20124;-58
2022/06/20 09:40:50;;;;;;;1.77;1.67;;;29.40;41.70;;;;;;5001699;28;20724;-57
2022/06/20 09:43:26;;;;;;;1.35;1.33;;;29.40;41.60;;;;;;5005301;28;20040;-56
2022/06/20 09:46:19;;;;;;;1.42;1.33;;;29.30;41.80;;;;;;5002453;28;20030;-56
2022/06/20 09:49:00;;;;;;;1.50;1.40;;;29.30;41.50;;;;;;5000843;28;20064;-58
2022/06/20 09:51:45;;;;;;;1.10;1.10;;;29.30;41.50;;;;;;4999757;28;21563;-58
2022/06/20 09:54:16;;;;;;;1.60;1.50;;;29.30;41.40;;;;;;5000972;28;20036;-58
2022/06/20 09:56:41;;;;;;;1.40;1.38;;;29.20;41.40;;;;;;5005053;28;20037;-58
2022/06/20 09:59:29;;;;;;;1.45;1.35;;;29.20;41.40;;;;;;4999777;28;20044;-59
2022/06/20 10:02:09;;;;;;;1.88;1.77;;;29.20;41.50;;;;;;4999368;28;20038;-58
2022/06/20 10:04:50;;;;;;;1.88;1.70;;;29.20;41.70;;;;;;5003632;28;20033;-58
2022/06/20 10:08:00;;;;;;;1.70;1.60;;;29.10;41.50;;;;;;4990694;28;20038;-58
2022/06/20 10:11:02;;;;;;;1.75;1.65;;;29.10;41.50;;;;;;4989624;28;20025;-58
2022/06/20 10:13:55;;;;;;;2.38;1.40;;;29.10;41.50;;;;;;4997559;28;20096;-58
2022/06/20 10:16:50;;;;;;;1.13;1.13;;;29.10;41.50;;;;;;5003024;28;20152;-58
2022/06/20 10:19:44;;;;;;;1.83;1.73;;;29.10;41.40;;;;;;4998090;28;20041;-58
2022/06/20 10:22:38;;;;;;;1.75;1.65;;;29.00;41.30;;;;;;5003300;28;20365;-59
2022/06/20 10:25:10;;;;;;;1.60;1.50;;;29.10;41.30;;;;;;4996820;28;20111;-58
2022/06/20 10:27:53;;;;;;;1.83;1.73;;;29.10;41.50;;;;;;5001687;28;20477;-58
2022/06/20 10:30:40;;;;;;;1.50;1.40;;;29.10;41.40;;;;;;5005753;28;20032;-58
2022/06/20 10:33:08;;;;;;;1.80;1.70;;;29.00;41.40;;;;;;5003900;28;20034;-58
2022/06/20 10:36:00;;;;;;;1.85;1.75;;;29.00;41.50;;;;;;5006339;28;20473;-58
2022/06/20 10:38:47;;;;;;;1.40;1.30;;;29.00;41.40;;;;;;5010298;28;20058;-58
2022/06/20 10:41:18;;;;;;;1.60;1.50;;;29.10;41.40;;;;;;5011371;28;20018;-59
2022/06/20 10:43:46;;;;;;;1.50;1.40;;;29.00;41.40;;;;;;5012371;28;20884;-58
2022/06/20 10:46:21;;;;;;;1.67;1.58;;;29.00;41.30;;;;;;5010255;28;20404;-58
2022/06/20 10:49:25;;;;;;;1.80;1.70;;;29.00;41.50;;;;;;5009051;28;20049;-58
2022/06/20 10:52:12;;;;;;;1.73;1.63;;;29.00;41.60;;;;;;5008449;28;20049;-58
2022/06/20 10:54:44;;;;;;;2.03;1.75;;;29.00;41.50;;;;;;5008616;28;20054;-57
2022/06/20 10:57:15;;;;;;;1.80;1.70;;;29.00;41.50;;;;;;5017706;28;20937;-58
2022/06/20 11:00:04;;;;;;;1.70;1.60;;;29.00;41.50;;;;;;5003724;28;20034;-58
2022/06/20 11:02:53;;;;;;;1.50;1.40;;;28.90;41.40;;;;;;4998189;28;20392;-58
2022/06/20 11:05:44;;;;;;;1.13;1.08;;;28.90;41.50;;;;;;5006724;28;20056;-58
2022/06/20 11:08:34;;;;;;;1.70;1.60;;;28.90;41.50;;;;;;5009315;28;20032;-58
2022/06/20 11:11:06;;;;;;;1.70;1.60;;;28.90;41.60;;;;;;5008487;28;20029;-58
2022/06/20 11:13:47;;;;;;;1.75;1.65;;;28.90;41.60;;;;;;5005272;28;20048;-58
2022/06/20 11:16:26;;;;;;;1.90;1.80;;;28.90;41.70;;;;;;4998256;28;20037;-58
2022/06/20 11:19:23;;;;;;;1.20;1.20;;;28.90;41.80;;;;;;4999463;28;20033;-58
2022/06/20 11:22:13;;;;;;;1.38;1.33;;;28.90;41.90;;;;;;5011009;28;20911;-58
2022/06/20 11:25:07;;;;;;;1.30;1.30;;;28.90;41.80;;;;;;5009833;28;20037;-58
2022/06/20 11:27:58;;;;;;;1.70;1.60;;;28.90;41.70;;;;;;5013789;28;20029;-58
2022/06/20 11:30:49;;;;;;;2.80;1.83;;;28.90;41.20;;;;;;5001211;28;20463;-58
2022/06/20 11:34:00;;;;;;;1.33;1.23;;;28.90;41.20;;;;;;5007006;28;20100;-58
2022/06/20 11:36:13;;;;;;;2.78;2.10;;;28.90;41.30;;;;;;5003537;28;20045;-58
2022/06/20 11:39:08;;;;;;;1.25;1.25;;;28.90;41.40;;;;;;5000529;28;20637;-58
2022/06/20 11:41:48;;;;;;;1.80;1.70;;;28.90;41.10;;;;;;5001185;28;20030;-58
2022/06/20 11:44:23;;;;;;;1.60;1.50;;;28.90;41.20;;;;;;4999351;28;20037;-58
2022/06/20 11:47:00;;;;;;;1.90;1.75;;;28.90;41.20;;;;;;5003317;28;20045;-59
2022/06/20 11:49:44;;;;;;;1.85;1.75;;;28.90;41.30;;;;;;5007839;28;20036;-58
2022/06/20 11:52:23;;;;;;;2.00;1.80;;;28.90;41.50;;;;;;5011356;28;20433;-58
2022/06/20 11:55:11;;;;;;;1.70;1.60;;;28.90;41.60;;;;;;5005851;28;20053;-58
2022/06/20 11:57:58;;;;;;;2.30;1.60;;;28.90;41.70;;;;;;5007246;28;20046;-58
2022/06/20 12:00:31;;;;;;;1.98;1.80;;;28.90;41.70;;;;;;5003462;28;20022;-58
2022/06/20 12:03:08;;;;;;;1.70;1.60;;;28.90;41.60;;;;;;5009904;28;20037;-58
2022/06/20 12:05:50;;;;;;;1.70;1.60;;;28.90;41.40;;;;;;5013252;28;20084;-57
2022/06/20 12:08:26;;;;;;;1.88;1.77;;;28.90;41.50;;;;;;5010792;28;20063;-58
2022/06/20 12:10:59;;;;;;;2.00;1.90;;;28.90;41.50;;;;;;5010719;28;20029;-58
2022/06/20 12:13:30;;;;;;;1.50;1.40;;;28.80;41.60;;;;;;5010114;28;20030;-58
2022/06/20 12:16:02;;;;;;;3.10;1.73;;;28.90;41.70;;;;;;5010352;28;20037;-58
2022/06/20 12:24:24;;;;;;;2.55;1.90;;;28.90;41.90;;;;;;5014457;28;20043;-58
2022/06/20 12:26:52;;;;;;;1.85;1.75;;;28.90;41.90;;;;;;5017017;28;20033;-58
2022/06/20 12:29:24;;;;;;;2.67;1.95;;;28.80;41.60;;;;;;5014689;28;20033;-58
2022/06/20 12:31:54;;;;;;;2.13;1.85;;;28.80;41.30;;;;;;5011430;28;20037;-58
2022/06/20 12:34:36;;;;;;;1.67;1.58;;;28.80;41.10;;;;;;5007153;28;20029;-58
2022/06/20 12:37:34;;;;;;;1.95;1.80;;;28.80;41.30;;;;;;5004924;28;20489;-58
2022/06/20 12:40:14;;;;;;;1.52;1.42;;;28.90;41.60;;;;;;5003803;28;20026;-58
2022/06/20 12:43:05;;;;;;;1.98;1.75;;;28.80;41.40;;;;;;5005342;28;20097;-58
2022/06/20 12:46:00;;;;;;;3.50;1.63;;;28.90;41.60;;;;;;5004572;28;20033;-58
2022/06/20 12:48:41;;;;;;;1.73;1.63;;;28.80;41.80;;;;;;5004242;28;20085;-58
2022/06/20 12:51:19;;;;;;;1.98;1.77;;;28.80;41.80;;;;;;5006692;28;20026;-58
2022/06/20 12:53:48;;;;;;;2.00;1.90;;;28.80;42.00;;;;;;5001862;28;20033;-57
2022/06/20 12:56:20;;;;;;;1.70;1.60;;;28.80;42.10;;;;;;5001794;28;20079;-58
2022/06/20 12:58:59;;;;;;;2.00;1.80;;;28.80;42.00;;;;;;5008523;28;20030;-58
2022/06/20 13:01:39;;;;;;;2.25;1.88;;;28.80;42.10;;;;;;4996193;28;20028;-58
2022/06/20 13:04:17;;;;;;;1.98;1.85;;;28.80;41.90;;;;;;4998848;28;20025;-57
2022/06/20 13:07:06;;;;;;;1.90;1.80;;;28.80;41.90;;;;;;5005381;28;20045;-58
2022/06/20 13:09:50;;;;;;;1.23;1.23;;;28.80;41.90;;;;;;5002407;28;20049;-58
2022/06/20 13:12:46;;;;;;;2.47;1.63;;;28.80;41.90;;;;;;5000052;28;20061;-58
2022/06/20 13:15:36;;;;;;;1.70;1.60;;;28.80;42.00;;;;;;5005583;28;20061;-58
2022/06/20 13:18:15;;;;;;;2.00;1.90;;;28.80;41.90;;;;;;5008502;28;20469;-59
2022/06/20 13:21:04;;;;;;;1.80;1.70;;;28.80;41.90;;;;;;5014790;28;20045;-57
2022/06/20 13:23:47;;;;;;;1.67;1.58;;;28.80;42.00;;;;;;5009604;28;20131;-59
2022/06/20 13:26:36;;;;;;;1.67;1.58;;;28.70;41.70;;;;;;5011088;28;20032;-58
2022/06/20 13:29:23;;;;;;;1.85;1.75;;;28.70;41.50;;;;;;5009050;28;20121;-56
2022/06/20 13:32:17;;;;;;;2.00;1.80;;;28.70;41.50;;;;;;5011770;28;20040;-58
2022/06/20 13:35:13;;;;;;;1.70;1.60;;;28.70;41.60;;;;;;5000153;28;20420;-58
2022/06/20 13:38:09;;;;;;;1.85;1.75;;;28.70;41.80;;;;;;5003699;28;20025;-58
2022/06/20 13:40:48;;;;;;;2.55;1.70;;;28.70;41.60;;;;;;5006833;28;20943;-58
2022/06/20 13:43:33;;;;;;;2.13;1.88;;;28.70;41.60;;;;;;5005955;28;24106;-58
2022/06/20 13:46:08;;;;;;;1.48;1.38;;;28.60;41.40;;;;;;5007740;28;20040;-58
2022/06/20 13:48:41;;;;;;;1.42;1.35;;;28.60;41.20;;;;;;5008739;28;20038;-58
2022/06/20 13:51:26;;;;;;;1.88;1.75;;;28.60;41.00;;;;;;4997519;28;20079;-58
2022/06/20 13:54:10;;;;;;;1.50;1.40;;;28.60;41.00;;;;;;5002275;28;20476;-58
2022/06/20 13:56:57;;;;;;;2.25;1.75;;;28.60;41.00;;;;;;5004620;28;20030;-58